Archival Weather

Agadez

Agadez, Niger (DRZA)

Report from: Thursday, September 21, 2023 1:00 PM WAT
Current time: Friday, February 23, 2024 9:05 PM WAT

Current weather – Weather history – Daily summaries
Weather forecast

Temperature39.0°C (102.2°F)
Heat index37.1°C (98.9°F)
Dew point9.0°C (48.2°F)
Winds 7 kts (3.6 m/s, 8.1 mph) East-Southeast (120°)
Clouds Sky clear
Altimeter29.88 in.Hg (1012 mB)
Relative humidity16 %
Density altitude2,910 ft. (887 m)
Remarks Ceiling and visibility OK
Flight conditions Visual Meteorological Conditions
Raw dataDRZA 211200Z 12007KT CAVOK 39/09 Q1012
An error has occurred. This application may no longer respond until reloaded. Reload 🗙